createdAt,value
2022-07-31T00:00:41.357Z,79.84
2022-07-31T00:03:08.784Z,80.19
2022-07-31T00:05:41.420Z,79.96
2022-07-31T00:08:09.022Z,80.18
2022-07-31T00:10:35.679Z,80.07
2022-07-31T00:13:02.479Z,79.96
2022-07-31T00:15:29.108Z,79.93
2022-07-31T00:17:55.819Z,80.06
2022-07-31T00:20:22.253Z,79.83
2022-07-31T00:22:49.234Z,79.74
2022-07-31T00:25:16.878Z,79.84
2022-07-31T00:27:43.956Z,80.05
2022-07-31T00:30:13.046Z,79.85
2022-07-31T00:32:39.807Z,79.90
2022-07-31T00:35:07.008Z,79.73
2022-07-31T00:37:38.157Z,80.40
2022-07-31T00:40:07.918Z,79.96
2022-07-31T00:42:34.920Z,79.81
2022-07-31T00:45:01.587Z,79.83
2022-07-31T00:47:28.288Z,79.87
2022-07-31T00:49:56.771Z,79.93
2022-07-31T00:52:23.247Z,79.99
2022-07-31T00:54:49.680Z,80.00
2022-07-31T00:57:16.147Z,80.09
2022-07-31T00:59:43.718Z,80.07
2022-07-31T01:02:11.290Z,80.04
2022-07-31T01:04:37.708Z,79.91
2022-07-31T01:07:08.217Z,79.71
2022-07-31T01:09:34.653Z,79.83
2022-07-31T01:12:22.732Z,80.32
2022-07-31T01:14:53.113Z,80.28
2022-07-31T01:17:22.245Z,80.27
2022-07-31T01:19:50.696Z,80.34
2022-07-31T01:22:33.578Z,80.26
2022-07-31T01:25:29.209Z,80.72
2022-07-31T01:28:24.268Z,81.00
2022-07-31T01:31:27.238Z,80.84
2022-07-31T01:34:03.764Z,81.15
2022-07-31T01:36:35.192Z,81.02
2022-07-31T01:39:03.605Z,81.21
2022-07-31T01:41:34.230Z,81.76
2022-07-31T01:44:04.457Z,81.80
2022-07-31T01:46:37.343Z,79.94
2022-07-31T01:49:09.831Z,81.22
2022-07-31T01:51:39.081Z,81.89
2022-07-31T01:54:06.347Z,81.84
2022-07-31T01:56:34.793Z,82.16
2022-07-31T01:59:02.877Z,82.57
2022-07-31T02:01:32.182Z,82.51
2022-07-31T02:04:01.328Z,82.81
2022-07-31T02:06:28.760Z,82.72
2022-07-31T02:08:56.540Z,83.16
2022-07-31T02:11:23.569Z,83.26
2022-07-31T02:13:51.583Z,83.30
2022-07-31T02:16:20.335Z,83.75
2022-07-31T02:18:49.683Z,83.91
2022-07-31T02:21:17.213Z,82.36
2022-07-31T02:23:43.705Z,83.59
2022-07-31T02:26:10.340Z,84.00
2022-07-31T02:28:40.651Z,84.32
2022-07-31T02:31:11.481Z,85.00
2022-07-31T02:33:40.078Z,84.99
2022-07-31T02:36:07.749Z,84.92
2022-07-31T02:38:36.108Z,85.23
2022-07-31T02:41:05.225Z,84.97
2022-07-31T02:43:35.230Z,85.51
2022-07-31T02:46:03.404Z,84.82
2022-07-31T02:48:30.890Z,85.28
2022-07-31T02:50:58.138Z,85.45
2022-07-31T02:53:24.908Z,85.33
2022-07-31T02:55:51.796Z,85.15
2022-07-31T02:58:18.493Z,85.51
2022-07-31T03:00:45.855Z,85.63
2022-07-31T03:03:12.614Z,85.70
2022-07-31T03:05:39.066Z,85.86
2022-07-31T03:08:05.699Z,86.71
2022-07-31T03:10:32.163Z,87.02
2022-07-31T03:13:00.677Z,87.08
2022-07-31T03:15:28.947Z,87.65
2022-07-31T03:17:55.734Z,87.95
2022-07-31T03:20:23.440Z,88.13
2022-07-31T03:22:50.718Z,87.84
2022-07-31T03:25:21.612Z,87.78
2022-07-31T03:27:56.014Z,87.92
2022-07-31T03:30:25.182Z,88.22
2022-07-31T03:32:56.167Z,89.37
2022-07-31T03:35:24.598Z,89.50
2022-07-31T03:37:51.565Z,89.73
2022-07-31T03:40:18.223Z,89.42
2022-07-31T03:42:45.401Z,89.27
2022-07-31T03:45:13.241Z,89.13
2022-07-31T03:47:40.057Z,88.87
2022-07-31T03:50:07.956Z,89.43
2022-07-31T03:52:34.916Z,89.04
2022-07-31T03:55:01.728Z,88.80
2022-07-31T03:57:33.989Z,88.72
2022-07-31T04:00:02.642Z,88.75
2022-07-31T04:02:29.879Z,88.74
2022-07-31T04:04:58.554Z,88.72
2022-07-31T04:07:25.102Z,89.04
2022-07-31T04:09:51.945Z,88.95
2022-07-31T04:12:18.523Z,88.82
2022-07-31T04:14:45.193Z,89.13
2022-07-31T04:17:11.879Z,89.72
2022-07-31T04:19:39.259Z,90.20
2022-07-31T04:22:06.713Z,90.18
2022-07-31T04:24:34.185Z,91.19
2022-07-31T04:27:00.662Z,91.59
2022-07-31T04:29:28.688Z,91.61
2022-07-31T04:31:55.855Z,91.79
2022-07-31T04:34:22.467Z,92.47
2022-07-31T04:36:48.969Z,92.60
2022-07-31T04:39:15.485Z,92.98
2022-07-31T04:41:41.947Z,93.28
2022-07-31T04:44:08.444Z,93.15
2022-07-31T04:46:34.907Z,93.53
2022-07-31T04:49:01.478Z,93.78
2022-07-31T04:51:28.104Z,93.66
2022-07-31T04:53:54.586Z,93.68
2022-07-31T04:56:37.376Z,93.52
2022-07-31T04:59:06.683Z,93.42
2022-07-31T05:01:33.742Z,93.08
2022-07-31T05:04:00.647Z,92.82
2022-07-31T05:06:41.102Z,93.30
2022-07-31T05:09:13.746Z,92.03
2022-07-31T05:11:45.650Z,91.52
2022-07-31T05:14:14.223Z,91.01
2022-07-31T05:16:40.883Z,90.59
2022-07-31T05:19:14.508Z,90.23
2022-07-31T05:21:53.274Z,90.20
2022-07-31T05:24:32.699Z,90.25
2022-07-31T05:27:00.835Z,90.44
2022-07-31T05:29:27.287Z,90.84
2022-07-31T05:31:59.977Z,91.67
2022-07-31T05:34:30.150Z,91.84
2022-07-31T05:36:58.322Z,92.00
2022-07-31T05:39:25.198Z,92.19
2022-07-31T05:41:52.704Z,91.18
2022-07-31T05:44:19.361Z,89.79
2022-07-31T05:46:45.873Z,88.78
2022-07-31T05:49:12.666Z,86.97
2022-07-31T05:51:42.494Z,85.71
2022-07-31T05:54:08.927Z,83.02
2022-07-31T05:56:35.376Z,80.56
2022-07-31T05:59:01.807Z,80.28
2022-07-31T06:01:28.353Z,79.40
2022-07-31T06:03:54.803Z,79.92
2022-07-31T06:06:21.452Z,77.68
2022-07-31T06:08:47.889Z,77.04
2022-07-31T06:11:14.310Z,76.37
2022-07-31T06:13:43.518Z,73.62
2022-07-31T06:16:16.173Z,73.89
2022-07-31T06:18:43.109Z,72.64
2022-07-31T06:21:09.881Z,71.82
2022-07-31T06:23:37.409Z,70.32
2022-07-31T06:26:04.345Z,69.36
2022-07-31T06:28:43.173Z,67.73
2022-07-31T06:31:21.998Z,67.04
2022-07-31T06:33:49.932Z,66.17
2022-07-31T06:36:17.786Z,65.17
2022-07-31T06:38:44.523Z,65.56
2022-07-31T06:41:10.927Z,66.16
2022-07-31T06:43:37.557Z,65.78
2022-07-31T06:46:04.013Z,63.28
2022-07-31T06:48:30.625Z,62.83
2022-07-31T06:51:27.964Z,60.39
2022-07-31T06:53:43.472Z,58.87
2022-07-31T06:56:10.136Z,57.55
2022-07-31T06:58:36.588Z,57.60
2022-07-31T07:01:03.199Z,57.62
2022-07-31T07:03:29.672Z,57.10
2022-07-31T07:05:56.103Z,56.99
2022-07-31T07:08:22.596Z,56.64
2022-07-31T07:10:49.487Z,54.64
2022-07-31T07:13:15.991Z,54.90
2022-07-31T07:15:42.411Z,56.49
2022-07-31T07:18:08.856Z,57.33
2022-07-31T07:20:35.285Z,57.48
2022-07-31T07:23:01.717Z,56.30
2022-07-31T07:25:28.793Z,57.03
2022-07-31T07:27:56.628Z,56.44
2022-07-31T07:30:23.704Z,54.58
2022-07-31T07:32:50.120Z,53.88
2022-07-31T07:35:16.678Z,54.78
2022-07-31T07:37:43.170Z,53.98
2022-07-31T07:40:09.983Z,53.63
2022-07-31T07:42:36.574Z,53.64
2022-07-31T07:45:08.106Z,53.35
2022-07-31T07:48:05.294Z,52.26
2022-07-31T07:50:22.727Z,53.05
2022-07-31T07:52:53.339Z,51.32
2022-07-31T07:55:19.755Z,52.48
2022-07-31T07:57:46.250Z,51.88
2022-07-31T08:00:13.616Z,51.21
2022-07-31T08:02:41.256Z,52.18
2022-07-31T08:05:07.823Z,52.18
2022-07-31T08:07:42.862Z,53.73
2022-07-31T08:10:09.892Z,53.36
2022-07-31T08:12:36.514Z,53.89
2022-07-31T08:15:04.430Z,53.12
2022-07-31T08:17:31.148Z,51.30
2022-07-31T08:19:57.633Z,50.79
2022-07-31T08:22:24.086Z,51.16
2022-07-31T08:24:50.564Z,50.95
2022-07-31T08:27:39.614Z,51.18
2022-07-31T08:30:07.205Z,49.99
2022-07-31T08:32:33.667Z,48.96
2022-07-31T08:35:00.223Z,48.31
2022-07-31T08:37:51.815Z,48.79
2022-07-31T08:40:13.123Z,49.17
2022-07-31T08:42:39.568Z,49.40
2022-07-31T08:45:07.990Z,50.08
2022-07-31T08:47:35.906Z,49.52
2022-07-31T08:50:06.450Z,49.04
2022-07-31T08:52:34.917Z,48.52
2022-07-31T08:55:06.356Z,49.01
2022-07-31T08:57:33.404Z,49.73
2022-07-31T08:59:59.818Z,49.96
2022-07-31T09:02:26.511Z,50.42
2022-07-31T09:04:53.094Z,51.16
2022-07-31T09:07:19.711Z,50.51
2022-07-31T09:09:51.552Z,50.92
2022-07-31T09:12:33.609Z,51.04
2022-07-31T09:15:00.935Z,49.76
2022-07-31T09:17:35.874Z,49.91
2022-07-31T09:20:04.317Z,48.48
2022-07-31T09:22:31.367Z,48.60
2022-07-31T09:25:12.853Z,47.74
2022-07-31T09:27:39.575Z,48.53
2022-07-31T09:30:07.679Z,48.52
2022-07-31T09:32:34.123Z,48.90
2022-07-31T09:35:14.455Z,48.14
2022-07-31T09:37:41.283Z,47.04
2022-07-31T09:40:09.275Z,47.40
2022-07-31T09:42:38.301Z,47.62
2022-07-31T09:45:23.024Z,47.30
2022-07-31T09:48:14.382Z,47.40
2022-07-31T09:50:58.511Z,45.65
2022-07-31T09:53:25.815Z,42.86
2022-07-31T09:55:53.892Z,43.45
2022-07-31T09:58:22.202Z,43.08
2022-07-31T10:00:52.419Z,43.90
2022-07-31T10:03:19.785Z,41.32
2022-07-31T10:05:47.550Z,41.14
2022-07-31T10:08:17.269Z,40.43
2022-07-31T10:10:45.065Z,38.63
2022-07-31T10:13:15.474Z,39.48
2022-07-31T10:15:45.492Z,39.59
2022-07-31T10:18:11.980Z,38.62
2022-07-31T10:20:42.075Z,39.52
2022-07-31T10:23:18.952Z,39.96
2022-07-31T10:25:54.472Z,39.73
2022-07-31T10:28:21.901Z,38.58
2022-07-31T10:30:49.209Z,38.41
2022-07-31T10:33:41.857Z,37.19
2022-07-31T10:36:09.171Z,38.77
2022-07-31T10:39:06.487Z,38.87
2022-07-31T10:41:51.828Z,36.58
2022-07-31T10:44:32.130Z,36.63
2022-07-31T10:47:12.133Z,36.35
2022-07-31T10:49:48.347Z,38.18
2022-07-31T10:52:29.229Z,35.82
2022-07-31T10:54:58.246Z,34.68
2022-07-31T10:57:27.106Z,34.43
2022-07-31T10:59:54.093Z,35.54
2022-07-31T11:02:32.083Z,36.02
2022-07-31T11:05:22.988Z,36.06
2022-07-31T11:08:01.501Z,34.84
2022-07-31T11:10:28.167Z,34.88
2022-07-31T11:13:08.360Z,34.92
2022-07-31T11:15:37.383Z,34.83
2022-07-31T11:18:25.374Z,35.90
2022-07-31T11:21:09.467Z,35.31
2022-07-31T11:23:55.640Z,35.83
2022-07-31T11:26:33.062Z,35.42
2022-07-31T11:30:01.488Z,35.25
2022-07-31T11:31:54.540Z,35.06
2022-07-31T11:34:21.081Z,35.82
2022-07-31T11:36:51.255Z,35.92
2022-07-31T11:39:18.541Z,34.26
2022-07-31T11:41:47.295Z,35.02
2022-07-31T11:44:20.731Z,35.07
2022-07-31T11:46:49.945Z,34.03
2022-07-31T11:49:39.206Z,34.95
2022-07-31T11:52:30.785Z,35.25
2022-07-31T11:55:13.379Z,36.44
2022-07-31T11:57:50.764Z,35.35
2022-07-31T12:00:26.769Z,33.49
2022-07-31T12:02:57.531Z,36.34
2022-07-31T12:05:38.731Z,35.56
2022-07-31T12:08:07.706Z,34.21
2022-07-31T12:10:34.457Z,34.24
2022-07-31T12:13:02.304Z,35.01
2022-07-31T12:15:29.114Z,33.25
2022-07-31T12:18:05.059Z,36.15
2022-07-31T12:20:36.991Z,34.41
2022-07-31T12:23:05.483Z,34.21
2022-07-31T12:25:42.663Z,34.21
2022-07-31T12:28:10.078Z,35.94
2022-07-31T12:30:36.685Z,34.56
2022-07-31T12:33:07.856Z,35.54
2022-07-31T12:35:56.242Z,35.13
2022-07-31T12:38:44.724Z,35.14
2022-07-31T12:41:13.470Z,33.87
2022-07-31T12:43:40.275Z,34.96
2022-07-31T12:46:19.101Z,35.62
2022-07-31T12:48:46.370Z,34.45
2022-07-31T12:51:13.159Z,34.86
2022-07-31T12:53:39.643Z,35.02
2022-07-31T12:56:11.381Z,37.00
2022-07-31T12:58:37.842Z,35.69
2022-07-31T13:01:04.503Z,37.16
2022-07-31T13:03:38.861Z,37.28
2022-07-31T13:06:13.216Z,35.44
2022-07-31T13:08:39.710Z,35.98
2022-07-31T13:11:06.146Z,36.26
2022-07-31T13:13:32.579Z,37.34
2022-07-31T13:15:59.027Z,37.71
2022-07-31T13:18:25.467Z,37.84
2022-07-31T13:20:51.896Z,38.90
2022-07-31T13:23:18.335Z,38.89
2022-07-31T13:25:44.789Z,39.19
2022-07-31T13:28:11.323Z,38.94
2022-07-31T13:30:38.592Z,39.34
2022-07-31T13:33:05.136Z,40.13
2022-07-31T13:35:32.607Z,39.67
2022-07-31T13:37:59.021Z,40.21
2022-07-31T13:40:44.617Z,40.48
2022-07-31T13:43:11.334Z,39.74
2022-07-31T13:45:38.305Z,39.76
2022-07-31T13:48:09.369Z,40.24
2022-07-31T13:50:39.874Z,40.87
2022-07-31T13:53:06.710Z,39.72
2022-07-31T13:55:33.330Z,39.54
2022-07-31T13:58:01.437Z,40.59
2022-07-31T14:00:29.380Z,40.21
2022-07-31T14:02:56.045Z,39.73
2022-07-31T14:05:24.324Z,39.97
2022-07-31T14:07:53.262Z,40.62
2022-07-31T14:10:21.517Z,40.69
2022-07-31T14:12:48.704Z,40.26
2022-07-31T14:15:16.504Z,40.13
2022-07-31T14:17:43.325Z,40.93
2022-07-31T14:20:10.220Z,41.26
2022-07-31T14:22:36.810Z,42.25
2022-07-31T14:25:04.149Z,41.71
2022-07-31T14:27:30.750Z,41.76
2022-07-31T14:29:57.224Z,43.10
2022-07-31T14:32:25.062Z,42.67
2022-07-31T14:34:52.106Z,43.34
2022-07-31T14:37:18.764Z,46.11
2022-07-31T14:39:45.233Z,47.39
2022-07-31T14:42:12.229Z,47.51
2022-07-31T14:44:41.881Z,47.85
2022-07-31T14:47:09.403Z,46.33
2022-07-31T14:50:09.526Z,51.89
2022-07-31T14:52:22.493Z,52.26
2022-07-31T14:54:49.109Z,53.69
2022-07-31T14:57:20.227Z,53.91
2022-07-31T14:59:49.060Z,55.76
2022-07-31T15:02:19.858Z,55.68
2022-07-31T15:04:48.526Z,58.03
2022-07-31T15:07:34.205Z,59.30
2022-07-31T15:10:02.064Z,61.52
2022-07-31T15:12:29.118Z,62.89
2022-07-31T15:14:55.499Z,64.83
2022-07-31T15:17:21.930Z,66.80
2022-07-31T15:19:48.398Z,68.06
2022-07-31T15:22:17.459Z,68.15
2022-07-31T15:24:48.286Z,69.04
2022-07-31T15:27:16.038Z,71.42
2022-07-31T15:30:03.333Z,72.39
2022-07-31T15:32:29.569Z,72.90
2022-07-31T15:34:56.036Z,74.00
2022-07-31T15:37:23.423Z,74.56
2022-07-31T15:40:02.962Z,76.02
2022-07-31T15:42:34.099Z,76.64
2022-07-31T15:45:00.767Z,77.07
2022-07-31T15:47:27.255Z,77.96
2022-07-31T15:49:53.746Z,80.73
2022-07-31T15:52:20.189Z,80.93
2022-07-31T15:54:47.136Z,80.76
2022-07-31T15:57:16.058Z,81.40
2022-07-31T15:59:42.708Z,80.49
2022-07-31T16:02:09.113Z,79.87
2022-07-31T16:04:51.652Z,80.14
2022-07-31T16:08:33.190Z,80.05
2022-07-31T16:10:15.577Z,80.93
2022-07-31T16:12:43.106Z,80.83
2022-07-31T16:15:12.225Z,81.57
2022-07-31T16:17:38.891Z,81.54
2022-07-31T16:20:11.793Z,82.41
2022-07-31T16:22:40.342Z,83.08
2022-07-31T16:25:09.768Z,84.12
2022-07-31T16:27:37.131Z,83.42
2022-07-31T16:30:04.822Z,83.41
2022-07-31T16:32:31.286Z,83.18
2022-07-31T16:35:00.939Z,83.69
2022-07-31T16:37:50.283Z,83.62
2022-07-31T16:40:30.397Z,83.65
2022-07-31T16:43:50.247Z,83.09
2022-07-31T16:45:53.434Z,83.50
2022-07-31T16:48:19.998Z,83.75
2022-07-31T16:50:48.358Z,83.70
2022-07-31T16:54:14.500Z,79.69
2022-07-31T16:56:07.000Z,79.16
2022-07-31T16:58:33.507Z,79.28
2022-07-31T17:01:00.086Z,79.42
2022-07-31T17:04:02.077Z,79.43
2022-07-31T17:06:13.014Z,80.38
2022-07-31T17:08:39.472Z,80.26
2022-07-31T17:11:05.969Z,80.97
2022-07-31T17:13:32.565Z,82.18
2022-07-31T17:15:59.046Z,81.22
2022-07-31T17:18:25.966Z,81.57
2022-07-31T17:20:56.266Z,81.97
2022-07-31T17:23:43.365Z,82.16
2022-07-31T17:26:21.173Z,82.47
2022-07-31T17:28:48.485Z,81.81
2022-07-31T17:31:14.887Z,82.15
2022-07-31T17:33:58.217Z,82.98
2022-07-31T17:36:27.657Z,82.70
2022-07-31T17:38:54.123Z,83.16
2022-07-31T17:41:24.787Z,83.83
2022-07-31T17:43:53.301Z,84.30
2022-07-31T17:46:22.135Z,84.43
2022-07-31T17:49:01.434Z,85.08
2022-07-31T17:51:27.924Z,85.08
2022-07-31T17:53:55.145Z,85.33
2022-07-31T17:56:26.251Z,85.00
2022-07-31T17:58:52.698Z,85.19
2022-07-31T18:01:19.166Z,85.12
2022-07-31T18:03:45.848Z,84.58
2022-07-31T18:06:12.299Z,85.45
2022-07-31T18:08:38.760Z,85.24
2022-07-31T18:11:06.500Z,86.45
2022-07-31T18:13:48.338Z,86.47
2022-07-31T18:16:18.719Z,86.30
2022-07-31T18:18:45.684Z,87.16
2022-07-31T18:21:13.475Z,87.54
2022-07-31T18:23:43.566Z,87.04
2022-07-31T18:26:14.301Z,87.81
2022-07-31T18:28:40.823Z,87.40
2022-07-31T18:31:32.687Z,87.73
2022-07-31T18:33:53.887Z,87.16
2022-07-31T18:36:21.224Z,87.83
2022-07-31T18:38:47.887Z,87.38
2022-07-31T18:41:14.500Z,87.91
2022-07-31T18:43:40.966Z,88.14
2022-07-31T18:46:07.401Z,87.97
2022-07-31T18:48:34.296Z,87.94
2022-07-31T18:51:04.762Z,88.40
2022-07-31T18:53:32.251Z,88.65
2022-07-31T18:55:58.702Z,88.41
2022-07-31T18:58:25.159Z,88.50
2022-07-31T19:00:55.118Z,88.48
2022-07-31T19:03:23.277Z,88.59
2022-07-31T19:05:50.845Z,89.22
2022-07-31T19:08:17.395Z,89.11
2022-07-31T19:10:43.955Z,89.46
2022-07-31T19:13:17.231Z,89.19
2022-07-31T19:15:47.093Z,89.46
2022-07-31T19:18:14.239Z,89.55
2022-07-31T19:20:56.391Z,89.66
2022-07-31T19:23:27.107Z,89.97
2022-07-31T19:26:03.520Z,89.93
2022-07-31T19:28:32.725Z,89.91
2022-07-31T19:30:59.230Z,90.26
2022-07-31T19:33:25.763Z,90.36
2022-07-31T19:35:58.348Z,90.19
2022-07-31T19:38:27.533Z,90.84
2022-07-31T19:40:54.464Z,90.77
2022-07-31T19:43:21.051Z,91.57
2022-07-31T19:46:10.508Z,91.29
2022-07-31T19:48:35.190Z,91.51
2022-07-31T19:51:01.659Z,92.34
2022-07-31T19:53:28.238Z,92.44
2022-07-31T19:55:54.971Z,92.42
2022-07-31T19:58:21.647Z,92.64
2022-07-31T20:00:48.161Z,92.63
2022-07-31T20:03:14.666Z,92.83
2022-07-31T20:05:41.203Z,93.23
2022-07-31T20:08:07.619Z,92.92
2022-07-31T20:10:34.130Z,92.88
2022-07-31T20:13:00.646Z,92.62
2022-07-31T20:15:27.433Z,92.96
2022-07-31T20:18:27.559Z,92.84
2022-07-31T20:20:59.910Z,92.97
2022-07-31T20:23:27.243Z,92.80
2022-07-31T20:25:53.795Z,93.27
2022-07-31T20:28:20.413Z,92.86
2022-07-31T20:30:46.886Z,93.03
2022-07-31T20:33:13.666Z,93.65
2022-07-31T20:35:49.018Z,93.52
2022-07-31T20:38:23.810Z,94.43
2022-07-31T20:40:53.689Z,93.00
2022-07-31T20:43:27.102Z,94.19
2022-07-31T20:45:57.262Z,94.17
2022-07-31T20:48:26.452Z,93.87
2022-07-31T20:50:53.030Z,94.26
2022-07-31T20:53:20.853Z,94.36
2022-07-31T20:55:49.705Z,94.44
2022-07-31T20:58:18.400Z,94.77
2022-07-31T21:00:45.503Z,94.83
2022-07-31T21:03:11.994Z,94.44
2022-07-31T21:05:38.484Z,95.28
2022-07-31T21:08:05.257Z,95.72
2022-07-31T21:10:32.056Z,95.70
2022-07-31T21:12:58.489Z,95.88
2022-07-31T21:15:42.525Z,96.09
2022-07-31T21:18:16.091Z,96.44
2022-07-31T21:20:49.612Z,96.54
2022-07-31T21:23:19.433Z,96.42
2022-07-31T21:25:46.059Z,97.07
2022-07-31T21:28:12.837Z,96.92
2022-07-31T21:30:40.121Z,96.77
2022-07-31T21:33:07.897Z,96.68
2022-07-31T21:35:36.632Z,96.71
2022-07-31T21:38:04.397Z,96.68
2022-07-31T21:40:31.681Z,96.53
2022-07-31T21:42:58.435Z,96.52
2022-07-31T21:45:31.395Z,96.60
2022-07-31T21:48:14.109Z,96.52
2022-07-31T21:50:45.503Z,97.09
2022-07-31T21:53:13.124Z,96.60
2022-07-31T21:55:40.646Z,96.63
2022-07-31T21:58:08.362Z,96.79
2022-07-31T22:00:35.228Z,96.27
2022-07-31T22:03:03.410Z,96.64
2022-07-31T22:05:49.054Z,96.52
2022-07-31T22:08:16.136Z,96.60
2022-07-31T22:10:42.801Z,96.48
2022-07-31T22:13:09.427Z,96.57
2022-07-31T22:15:58.539Z,96.51
2022-07-31T22:18:23.175Z,96.42
2022-07-31T22:20:53.204Z,96.41
2022-07-31T22:23:19.983Z,96.50
2022-07-31T22:25:48.948Z,96.71
2022-07-31T22:28:18.897Z,96.79
2022-07-31T22:30:45.886Z,96.60
2022-07-31T22:33:12.581Z,96.75
2022-07-31T22:35:40.582Z,96.36
2022-07-31T22:38:07.833Z,96.65
2022-07-31T22:40:34.690Z,96.54
2022-07-31T22:43:02.382Z,96.11
2022-07-31T22:45:30.232Z,96.42
2022-07-31T22:47:57.713Z,96.44
2022-07-31T22:50:24.800Z,96.30
2022-07-31T22:52:51.802Z,96.12
2022-07-31T22:55:18.446Z,96.05
2022-07-31T22:57:45.187Z,96.07
2022-07-31T23:00:13.910Z,96.22
2022-07-31T23:02:41.595Z,96.51
2022-07-31T23:05:09.003Z,96.58
2022-07-31T23:07:35.548Z,96.56
2022-07-31T23:10:02.267Z,96.11
2022-07-31T23:12:29.459Z,96.21
2022-07-31T23:14:56.191Z,96.34
2022-07-31T23:17:23.578Z,96.36
2022-07-31T23:19:54.360Z,96.29
2022-07-31T23:22:33.511Z,96.63
2022-07-31T23:25:08.911Z,97.44
2022-07-31T23:27:35.631Z,96.20
2022-07-31T23:30:02.113Z,96.04
2022-07-31T23:32:28.755Z,95.62
2022-07-31T23:34:55.274Z,95.61
2022-07-31T23:37:21.722Z,95.50
2022-07-31T23:39:48.289Z,95.79
2022-07-31T23:42:33.418Z,95.53
2022-07-31T23:44:59.924Z,95.64
2022-07-31T23:47:27.979Z,95.48
2022-07-31T23:50:11.823Z,95.24
2022-07-31T23:52:38.283Z,95.04
2022-07-31T23:55:05.190Z,94.86
2022-07-31T23:57:34.359Z,95.05
